sensor_id;sensor_type;location;lat;lon;timestamp;temperature;humidity
20432;DHT22;10375;49.136;10.366;2022-11-15T00:00:54;5.00;99.90
20432;DHT22;10375;49.136;10.366;2022-11-15T00:03:23;4.90;99.90
20432;DHT22;10375;49.136;10.366;2022-11-15T00:05:50;4.90;99.90
20432;DHT22;10375;49.136;10.366;2022-11-15T00:08:18;4.90;99.90
20432;DHT22;10375;49.136;10.366;2022-11-15T00:11:01;4.90;99.90
20432;DHT22;10375;49.136;10.366;2022-11-15T00:13:28;4.90;99.90
20432;DHT22;10375;49.136;10.366;2022-11-15T00:15:57;4.80;99.90
20432;DHT22;10375;49.136;10.366;2022-11-15T00:18:25;4.80;99.90
20432;DHT22;10375;49.136;10.366;2022-11-15T00:20:52;4.80;99.90
20432;DHT22;10375;49.136;10.366;2022-11-15T00:23:20;4.70;99.90
20432;DHT22;10375;49.136;10.366;2022-11-15T00:25:55;4.70;99.90
20432;DHT22;10375;49.136;10.366;2022-11-15T00:28:22;4.70;99.90
20432;DHT22;10375;49.136;10.366;2022-11-15T00:30:49;4.70;99.90
20432;DHT22;10375;49.136;10.366;2022-11-15T00:33:16;4.70;99.90
20432;DHT22;10375;49.136;10.366;2022-11-15T00:35:44;4.70;99.90
20432;DHT22;10375;49.136;10.366;2022-11-15T00:38:11;4.70;99.90
20432;DHT22;10375;49.136;10.366;2022-11-15T00:40:38;4.70;99.90
20432;DHT22;10375;49.136;10.366;2022-11-15T00:43:05;4.70;99.90
20432;DHT22;10375;49.136;10.366;2022-11-15T00:45:31;4.70;99.90
20432;DHT22;10375;49.136;10.366;2022-11-15T00:47:59;4.70;99.90
20432;DHT22;10375;49.136;10.366;2022-11-15T00:50:27;4.80;99.90
20432;DHT22;10375;49.136;10.366;2022-11-15T00:52:55;4.80;99.90
20432;DHT22;10375;49.136;10.366;2022-11-15T00:55:23;4.90;99.90
20432;DHT22;10375;49.136;10.366;2022-11-15T00:57:55;4.90;99.90
20432;DHT22;10375;49.136;10.366;2022-11-15T01:00:22;4.90;99.90
20432;DHT22;10375;49.136;10.366;2022-11-15T01:02:49;5.00;99.90
20432;DHT22;10375;49.136;10.366;2022-11-15T01:05:17;5.00;99.90
20432;DHT22;10375;49.136;10.366;2022-11-15T01:07:44;5.10;99.90
20432;DHT22;10375;49.136;10.366;2022-11-15T01:10:11;5.10;99.90
20432;DHT22;10375;49.136;10.366;2022-11-15T01:12:38;5.10;99.90
20432;DHT22;10375;49.136;10.366;2022-11-15T01:15:05;5.20;99.90
20432;DHT22;10375;49.136;10.366;2022-11-15T01:17:32;5.30;99.90
20432;DHT22;10375;49.136;10.366;2022-11-15T01:19:59;5.30;99.90
20432;DHT22;10375;49.136;10.366;2022-11-15T01:22:26;5.30;99.90
20432;DHT22;10375;49.136;10.366;2022-11-15T01:24:53;5.30;99.90
20432;DHT22;10375;49.136;10.366;2022-11-15T01:27:20;5.40;99.90
20432;DHT22;10375;49.136;10.366;2022-11-15T01:29:48;5.50;99.90
20432;DHT22;10375;49.136;10.366;2022-11-15T01:32:15;5.50;99.90
20432;DHT22;10375;49.136;10.366;2022-11-15T01:34:42;5.50;99.90
20432;DHT22;10375;49.136;10.366;2022-11-15T01:37:09;5.60;99.90
20432;DHT22;10375;49.136;10.366;2022-11-15T01:39:36;5.60;99.90
20432;DHT22;10375;49.136;10.366;2022-11-15T01:42:03;5.60;99.90
20432;DHT22;10375;49.136;10.366;2022-11-15T01:44:42;5.60;99.90
20432;DHT22;10375;49.136;10.366;2022-11-15T01:47:22;5.70;99.90
20432;DHT22;10375;49.136;10.366;2022-11-15T01:52:25;5.70;99.90
20432;DHT22;10375;49.136;10.366;2022-11-15T01:54:58;5.70;99.90
20432;DHT22;10375;49.136;10.366;2022-11-15T01:57:28;5.70;99.90
20432;DHT22;10375;49.136;10.366;2022-11-15T01:59:55;5.70;99.90
20432;DHT22;10375;49.136;10.366;2022-11-15T02:02:23;5.70;99.90
20432;DHT22;10375;49.136;10.366;2022-11-15T02:04:50;5.70;99.90
20432;DHT22;10375;49.136;10.366;2022-11-15T02:07:19;5.70;99.90
20432;DHT22;10375;49.136;10.366;2022-11-15T02:09:47;5.70;99.90
20432;DHT22;10375;49.136;10.366;2022-11-15T02:12:18;5.70;99.90
20432;DHT22;10375;49.136;10.366;2022-11-15T02:14:49;5.70;99.90
20432;DHT22;10375;49.136;10.366;2022-11-15T02:23:14;5.60;99.90
20432;DHT22;10375;49.136;10.366;2022-11-15T02:31:36;5.50;99.90
20432;DHT22;10375;49.136;10.366;2022-11-15T02:37:11;5.50;99.90
20432;DHT22;10375;49.136;10.366;2022-11-15T02:39:46;5.60;99.90
20432;DHT22;10375;49.136;10.366;2022-11-15T02:42:28;5.60;99.90
20432;DHT22;10375;49.136;10.366;2022-11-15T02:45:23;5.60;99.90
20432;DHT22;10375;49.136;10.366;2022-11-15T02:47:54;5.70;99.90
20432;DHT22;10375;49.136;10.366;2022-11-15T02:50:25;5.70;99.90
20432;DHT22;10375;49.136;10.366;2022-11-15T02:52:52;5.70;99.90
20432;DHT22;10375;49.136;10.366;2022-11-15T02:55:43;5.70;99.90
20432;DHT22;10375;49.136;10.366;2022-11-15T03:09:12;5.70;99.90
20432;DHT22;10375;49.136;10.366;2022-11-15T03:11:46;5.50;99.90
20432;DHT22;10375;49.136;10.366;2022-11-15T03:14:29;5.50;99.90
20432;DHT22;10375;49.136;10.366;2022-11-15T03:16:58;5.40;99.90
20432;DHT22;10375;49.136;10.366;2022-11-15T03:19:47;5.30;99.90
20432;DHT22;10375;49.136;10.366;2022-11-15T03:22:22;5.20;99.90
20432;DHT22;10375;49.136;10.366;2022-11-15T03:24:53;5.10;99.90
20432;DHT22;10375;49.136;10.366;2022-11-15T03:27:24;5.00;99.90
20432;DHT22;10375;49.136;10.366;2022-11-15T03:29:59;4.90;99.90
20432;DHT22;10375;49.136;10.366;2022-11-15T03:32:33;4.80;99.90
20432;DHT22;10375;49.136;10.366;2022-11-15T03:35:11;4.70;99.90
20432;DHT22;10375;49.136;10.366;2022-11-15T03:40:24;4.60;99.90
20432;DHT22;10375;49.136;10.366;2022-11-15T03:45:37;4.50;99.90
20432;DHT22;10375;49.136;10.366;2022-11-15T03:48:13;4.40;99.90
20432;DHT22;10375;49.136;10.366;2022-11-15T03:50:42;4.40;99.90
20432;DHT22;10375;49.136;10.366;2022-11-15T03:53:10;4.40;99.90
20432;DHT22;10375;49.136;10.366;2022-11-15T03:55:37;4.50;99.90
20432;DHT22;10375;49.136;10.366;2022-11-15T03:58:04;4.40;99.90
20432;DHT22;10375;49.136;10.366;2022-11-15T04:00:31;4.40;99.90
20432;DHT22;10375;49.136;10.366;2022-11-15T04:02:58;4.40;99.90
20432;DHT22;10375;49.136;10.366;2022-11-15T04:05:25;4.40;99.90
20432;DHT22;10375;49.136;10.366;2022-11-15T04:07:52;4.40;99.90
20432;DHT22;10375;49.136;10.366;2022-11-15T04:10:19;4.40;99.90
20432;DHT22;10375;49.136;10.366;2022-11-15T04:12:46;4.50;99.90
20432;DHT22;10375;49.136;10.366;2022-11-15T04:15:17;4.50;99.90
20432;DHT22;10375;49.136;10.366;2022-11-15T04:17:49;4.50;99.90
20432;DHT22;10375;49.136;10.366;2022-11-15T04:23:05;4.50;99.90
20432;DHT22;10375;49.136;10.366;2022-11-15T04:25:52;4.50;99.90
20432;DHT22;10375;49.136;10.366;2022-11-15T04:28:20;4.40;99.90
20432;DHT22;10375;49.136;10.366;2022-11-15T04:30:47;4.40;99.90
20432;DHT22;10375;49.136;10.366;2022-11-15T04:33:14;4.30;99.90
20432;DHT22;10375;49.136;10.366;2022-11-15T04:35:42;4.30;99.90
20432;DHT22;10375;49.136;10.366;2022-11-15T04:38:10;4.30;99.90
20432;DHT22;10375;49.136;10.366;2022-11-15T04:40:37;4.30;99.90
20432;DHT22;10375;49.136;10.366;2022-11-15T04:43:04;4.20;99.90
20432;DHT22;10375;49.136;10.366;2022-11-15T04:45:31;4.20;99.90
20432;DHT22;10375;49.136;10.366;2022-11-15T04:47:58;4.20;99.90
20432;DHT22;10375;49.136;10.366;2022-11-15T04:50:25;4.20;99.90
20432;DHT22;10375;49.136;10.366;2022-11-15T04:52:53;4.10;99.90
20432;DHT22;10375;49.136;10.366;2022-11-15T04:55:20;4.10;99.90
20432;DHT22;10375;49.136;10.366;2022-11-15T04:57:48;4.10;99.90
20432;DHT22;10375;49.136;10.366;2022-11-15T05:00:23;4.10;99.90
20432;DHT22;10375;49.136;10.366;2022-11-15T05:02:50;4.10;99.90
20432;DHT22;10375;49.136;10.366;2022-11-15T05:05:36;4.10;99.90
20432;DHT22;10375;49.136;10.366;2022-11-15T05:08:03;4.10;99.90
20432;DHT22;10375;49.136;10.366;2022-11-15T05:10:31;4.10;99.90
20432;DHT22;10375;49.136;10.366;2022-11-15T05:12:58;4.10;99.90
20432;DHT22;10375;49.136;10.366;2022-11-15T05:15:25;4.10;99.90
20432;DHT22;10375;49.136;10.366;2022-11-15T05:17:57;4.00;99.90
20432;DHT22;10375;49.136;10.366;2022-11-15T05:20:25;4.00;99.90
20432;DHT22;10375;49.136;10.366;2022-11-15T05:22:53;4.00;99.90
20432;DHT22;10375;49.136;10.366;2022-11-15T05:25:22;3.90;99.90
20432;DHT22;10375;49.136;10.366;2022-11-15T05:27:49;3.90;99.90
20432;DHT22;10375;49.136;10.366;2022-11-15T05:30:16;3.90;99.90
20432;DHT22;10375;49.136;10.366;2022-11-15T05:32:44;3.90;99.90
20432;DHT22;10375;49.136;10.366;2022-11-15T05:35:28;3.90;99.90
20432;DHT22;10375;49.136;10.366;2022-11-15T05:37:57;3.90;99.90
20432;DHT22;10375;49.136;10.366;2022-11-15T05:40:25;3.80;99.90
20432;DHT22;10375;49.136;10.366;2022-11-15T05:42:53;3.90;99.90
20432;DHT22;10375;49.136;10.366;2022-11-15T05:45:20;3.90;99.90
20432;DHT22;10375;49.136;10.366;2022-11-15T05:47:54;3.90;99.90
20432;DHT22;10375;49.136;10.366;2022-11-15T05:50:23;3.90;99.90
20432;DHT22;10375;49.136;10.366;2022-11-15T05:52:50;3.80;99.90
20432;DHT22;10375;49.136;10.366;2022-11-15T05:55:18;3.80;99.90
20432;DHT22;10375;49.136;10.366;2022-11-15T05:57:45;3.80;99.90
20432;DHT22;10375;49.136;10.366;2022-11-15T06:00:12;3.80;99.90
20432;DHT22;10375;49.136;10.366;2022-11-15T06:02:39;3.80;99.90
20432;DHT22;10375;49.136;10.366;2022-11-15T06:05:06;3.80;99.90
20432;DHT22;10375;49.136;10.366;2022-11-15T06:07:33;3.70;99.90
20432;DHT22;10375;49.136;10.366;2022-11-15T06:10:00;3.70;99.90
20432;DHT22;10375;49.136;10.366;2022-11-15T06:12:28;3.70;99.90
20432;DHT22;10375;49.136;10.366;2022-11-15T06:14:54;3.70;99.90
20432;DHT22;10375;49.136;10.366;2022-11-15T06:17:22;3.70;99.90
20432;DHT22;10375;49.136;10.366;2022-11-15T06:19:49;3.80;99.90
20432;DHT22;10375;49.136;10.366;2022-11-15T06:22:25;3.80;99.90
20432;DHT22;10375;49.136;10.366;2022-11-15T06:24:52;3.90;99.90
20432;DHT22;10375;49.136;10.366;2022-11-15T06:27:19;4.00;99.90
20432;DHT22;10375;49.136;10.366;2022-11-15T06:29:46;4.10;99.90
20432;DHT22;10375;49.136;10.366;2022-11-15T06:32:13;4.20;99.90
20432;DHT22;10375;49.136;10.366;2022-11-15T06:34:41;4.30;99.90
20432;DHT22;10375;49.136;10.366;2022-11-15T06:37:08;4.40;99.90
20432;DHT22;10375;49.136;10.366;2022-11-15T06:39:35;4.50;99.90
20432;DHT22;10375;49.136;10.366;2022-11-15T06:42:02;4.60;99.90
20432;DHT22;10375;49.136;10.366;2022-11-15T06:44:29;4.60;99.90
20432;DHT22;10375;49.136;10.366;2022-11-15T06:46:56;4.70;99.90
20432;DHT22;10375;49.136;10.366;2022-11-15T06:49:23;4.80;99.90
20432;DHT22;10375;49.136;10.366;2022-11-15T06:51:50;4.80;99.90
20432;DHT22;10375;49.136;10.366;2022-11-15T06:54:17;4.90;99.90
20432;DHT22;10375;49.136;10.366;2022-11-15T06:56:44;5.10;99.90
20432;DHT22;10375;49.136;10.366;2022-11-15T06:59:11;5.10;99.90
20432;DHT22;10375;49.136;10.366;2022-11-15T07:01:38;5.30;99.90
20432;DHT22;10375;49.136;10.366;2022-11-15T07:04:05;5.40;99.90
20432;DHT22;10375;49.136;10.366;2022-11-15T07:06:32;5.50;99.90
20432;DHT22;10375;49.136;10.366;2022-11-15T07:08:59;5.60;99.90
20432;DHT22;10375;49.136;10.366;2022-11-15T07:11:26;5.60;99.90
20432;DHT22;10375;49.136;10.366;2022-11-15T07:13:53;5.70;99.90
20432;DHT22;10375;49.136;10.366;2022-11-15T07:16:20;5.80;99.90
20432;DHT22;10375;49.136;10.366;2022-11-15T07:18:47;5.90;99.90
20432;DHT22;10375;49.136;10.366;2022-11-15T07:21:14;6.00;99.90
20432;DHT22;10375;49.136;10.366;2022-11-15T07:23:41;6.10;99.90
20432;DHT22;10375;49.136;10.366;2022-11-15T07:26:08;6.00;99.90
20432;DHT22;10375;49.136;10.366;2022-11-15T07:28:36;5.90;99.90
20432;DHT22;10375;49.136;10.366;2022-11-15T07:31:07;5.90;99.90
20432;DHT22;10375;49.136;10.366;2022-11-15T07:33:35;5.90;99.90
20432;DHT22;10375;49.136;10.366;2022-11-15T07:36:04;5.80;99.90
20432;DHT22;10375;49.136;10.366;2022-11-15T07:38:33;5.80;99.90
20432;DHT22;10375;49.136;10.366;2022-11-15T07:41:06;5.80;99.90
20432;DHT22;10375;49.136;10.366;2022-11-15T07:43:33;5.80;99.90
20432;DHT22;10375;49.136;10.366;2022-11-15T07:46:07;5.80;99.90
20432;DHT22;10375;49.136;10.366;2022-11-15T07:48:37;6.10;99.90
20432;DHT22;10375;49.136;10.366;2022-11-15T07:51:14;6.50;99.90
20432;DHT22;10375;49.136;10.366;2022-11-15T07:53:42;7.20;99.90
20432;DHT22;10375;49.136;10.366;2022-11-15T07:56:10;7.50;99.90
20432;DHT22;10375;49.136;10.366;2022-11-15T07:58:37;8.00;99.90
20432;DHT22;10375;49.136;10.366;2022-11-15T08:01:09;8.70;99.90
20432;DHT22;10375;49.136;10.366;2022-11-15T08:03:37;9.30;99.90
20432;DHT22;10375;49.136;10.366;2022-11-15T08:06:04;9.50;99.90
20432;DHT22;10375;49.136;10.366;2022-11-15T08:08:31;9.30;99.90
20432;DHT22;10375;49.136;10.366;2022-11-15T08:10:59;9.10;99.90
20432;DHT22;10375;49.136;10.366;2022-11-15T08:13:26;9.10;99.90
20432;DHT22;10375;49.136;10.366;2022-11-15T08:16:01;9.10;99.90
20432;DHT22;10375;49.136;10.366;2022-11-15T08:18:28;9.20;99.90
20432;DHT22;10375;49.136;10.366;2022-11-15T08:20:59;9.20;99.90
20432;DHT22;10375;49.136;10.366;2022-11-15T08:23:26;9.50;99.90
20432;DHT22;10375;49.136;10.366;2022-11-15T08:26:00;10.00;99.90
20432;DHT22;10375;49.136;10.366;2022-11-15T08:28:27;10.40;99.90
20432;DHT22;10375;49.136;10.366;2022-11-15T08:30:54;10.70;99.90
20432;DHT22;10375;49.136;10.366;2022-11-15T08:33:21;10.90;99.90
20432;DHT22;10375;49.136;10.366;2022-11-15T08:35:48;11.00;99.90
20432;DHT22;10375;49.136;10.366;2022-11-15T08:38:15;10.90;99.90
20432;DHT22;10375;49.136;10.366;2022-11-15T08:40:42;10.70;99.90
20432;DHT22;10375;49.136;10.366;2022-11-15T08:43:09;10.60;99.90
20432;DHT22;10375;49.136;10.366;2022-11-15T08:45:36;10.70;99.90
20432;DHT22;10375;49.136;10.366;2022-11-15T08:48:03;10.80;99.90
20432;DHT22;10375;49.136;10.366;2022-11-15T08:50:31;10.90;99.90
20432;DHT22;10375;49.136;10.366;2022-11-15T08:53:07;10.90;99.90
20432;DHT22;10375;49.136;10.366;2022-11-15T08:55:38;10.90;99.90
20432;DHT22;10375;49.136;10.366;2022-11-15T08:58:05;11.00;99.90
20432;DHT22;10375;49.136;10.366;2022-11-15T09:00:33;11.10;99.90
20432;DHT22;10375;49.136;10.366;2022-11-15T09:03:03;11.30;99.90
20432;DHT22;10375;49.136;10.366;2022-11-15T09:05:31;11.50;99.90
20432;DHT22;10375;49.136;10.366;2022-11-15T09:07:58;11.70;99.90
20432;DHT22;10375;49.136;10.366;2022-11-15T09:10:25;11.90;99.90
20432;DHT22;10375;49.136;10.366;2022-11-15T09:12:52;12.00;99.90
20432;DHT22;10375;49.136;10.366;2022-11-15T09:15:19;12.20;99.90
20432;DHT22;10375;49.136;10.366;2022-11-15T09:17:46;12.30;99.90
20432;DHT22;10375;49.136;10.366;2022-11-15T09:20:13;12.40;99.90
20432;DHT22;10375;49.136;10.366;2022-11-15T09:22:40;12.50;99.90
20432;DHT22;10375;49.136;10.366;2022-11-15T09:25:07;12.60;99.90
20432;DHT22;10375;49.136;10.366;2022-11-15T09:27:37;12.70;99.90
20432;DHT22;10375;49.136;10.366;2022-11-15T09:30:04;12.80;99.90
20432;DHT22;10375;49.136;10.366;2022-11-15T09:32:31;12.80;99.90
20432;DHT22;10375;49.136;10.366;2022-11-15T09:35:05;13.00;99.90
20432;DHT22;10375;49.136;10.366;2022-11-15T09:37:32;13.10;99.90
20432;DHT22;10375;49.136;10.366;2022-11-15T09:39:59;13.20;99.90
20432;DHT22;10375;49.136;10.366;2022-11-15T09:42:45;13.30;99.90
20432;DHT22;10375;49.136;10.366;2022-11-15T09:45:36;13.20;99.90
20432;DHT22;10375;49.136;10.366;2022-11-15T09:50:49;13.00;99.90
20432;DHT22;10375;49.136;10.366;2022-11-15T09:53:27;13.10;99.90
20432;DHT22;10375;49.136;10.366;2022-11-15T09:59:19;13.40;99.90
20432;DHT22;10375;49.136;10.366;2022-11-15T10:04:36;13.70;99.90
20432;DHT22;10375;49.136;10.366;2022-11-15T10:07:19;13.70;99.90
20432;DHT22;10375;49.136;10.366;2022-11-15T10:12:17;13.80;99.90
20432;DHT22;10375;49.136;10.366;2022-11-15T10:14:45;14.00;99.90
20432;DHT22;10375;49.136;10.366;2022-11-15T10:20:27;14.20;99.90
20432;DHT22;10375;49.136;10.366;2022-11-15T10:22:58;14.30;99.90
20432;DHT22;10375;49.136;10.366;2022-11-15T10:25:31;14.30;99.90
20432;DHT22;10375;49.136;10.366;2022-11-15T10:28:06;14.30;99.90
20432;DHT22;10375;49.136;10.366;2022-11-15T10:30:38;14.30;99.90
20432;DHT22;10375;49.136;10.366;2022-11-15T10:41:18;13.80;99.90
20432;DHT22;10375;49.136;10.366;2022-11-15T10:46:28;13.30;99.90
20432;DHT22;10375;49.136;10.366;2022-11-15T10:49:23;13.20;99.90
20432;DHT22;10375;49.136;10.366;2022-11-15T10:54:29;13.00;99.90
20432;DHT22;10375;49.136;10.366;2022-11-15T10:56:59;13.00;99.90
20432;DHT22;10375;49.136;10.366;2022-11-15T10:59:30;13.00;99.90
20432;DHT22;10375;49.136;10.366;2022-11-15T11:02:45;13.10;99.90
20432;DHT22;10375;49.136;10.366;2022-11-15T11:05:30;13.10;99.90
20432;DHT22;10375;49.136;10.366;2022-11-15T11:11:02;13.20;99.90
20432;DHT22;10375;49.136;10.366;2022-11-15T11:13:32;13.20;99.90
20432;DHT22;10375;49.136;10.366;2022-11-15T11:19:04;13.20;99.90
20432;DHT22;10375;49.136;10.366;2022-11-15T11:22:11;13.30;99.90
20432;DHT22;10375;49.136;10.366;2022-11-15T11:33:24;13.50;99.90
20432;DHT22;10375;49.136;10.366;2022-11-15T11:39:07;13.50;99.90
20432;DHT22;10375;49.136;10.366;2022-11-15T11:41:47;13.50;99.90
20432;DHT22;10375;49.136;10.366;2022-11-15T11:47:01;13.20;99.90
20432;DHT22;10375;49.136;10.366;2022-11-15T11:50:11;13.10;99.90
20432;DHT22;10375;49.136;10.366;2022-11-15T11:52:34;13.10;99.90
20432;DHT22;10375;49.136;10.366;2022-11-15T11:55:14;13.10;99.90
20432;DHT22;10375;49.136;10.366;2022-11-15T11:57:55;13.10;99.90
20432;DHT22;10375;49.136;10.366;2022-11-15T12:00:26;13.10;99.90
20432;DHT22;10375;49.136;10.366;2022-11-15T12:03:20;13.10;99.90
20432;DHT22;10375;49.136;10.366;2022-11-15T12:05:54;13.20;99.90
20432;DHT22;10375;49.136;10.366;2022-11-15T12:14:01;13.30;99.90
20432;DHT22;10375;49.136;10.366;2022-11-15T12:16:31;13.40;99.90
20432;DHT22;10375;49.136;10.366;2022-11-15T12:19:01;13.50;99.90
20432;DHT22;10375;49.136;10.366;2022-11-15T12:22:19;13.60;99.90
20432;DHT22;10375;49.136;10.366;2022-11-15T12:27:37;13.70;99.90
20432;DHT22;10375;49.136;10.366;2022-11-15T12:30:16;13.80;99.90
20432;DHT22;10375;49.136;10.366;2022-11-15T12:32:55;13.80;99.90
20432;DHT22;10375;49.136;10.366;2022-11-15T12:37:57;13.80;99.90
20432;DHT22;10375;49.136;10.366;2022-11-15T12:40:26;13.70;99.90
20432;DHT22;10375;49.136;10.366;2022-11-15T12:45:34;14.00;99.90
20432;DHT22;10375;49.136;10.366;2022-11-15T12:58:53;14.50;99.90
20432;DHT22;10375;49.136;10.366;2022-11-15T13:06:52;14.00;99.90
20432;DHT22;10375;49.136;10.366;2022-11-15T13:14:42;14.10;99.90
20432;DHT22;10375;49.136;10.366;2022-11-15T13:17:36;14.10;99.90
20432;DHT22;10375;49.136;10.366;2022-11-15T13:20:14;14.10;99.90
20432;DHT22;10375;49.136;10.366;2022-11-15T13:22:52;14.00;99.90
20432;DHT22;10375;49.136;10.366;2022-11-15T13:30:55;13.50;99.90
20432;DHT22;10375;49.136;10.366;2022-11-15T13:33:31;13.40;99.90
20432;DHT22;10375;49.136;10.366;2022-11-15T13:36:23;13.20;99.90
20432;DHT22;10375;49.136;10.366;2022-11-15T13:38:56;13.20;99.90
20432;DHT22;10375;49.136;10.366;2022-11-15T13:41:26;13.00;99.90
20432;DHT22;10375;49.136;10.366;2022-11-15T13:43:55;13.00;99.90
20432;DHT22;10375;49.136;10.366;2022-11-15T13:46:27;12.90;99.90
20432;DHT22;10375;49.136;10.366;2022-11-15T13:49:05;12.90;99.90
20432;DHT22;10375;49.136;10.366;2022-11-15T13:56:53;12.70;99.90
20432;DHT22;10375;49.136;10.366;2022-11-15T14:01:50;12.50;99.90
20432;DHT22;10375;49.136;10.366;2022-11-15T14:04:21;12.50;99.90
20432;DHT22;10375;49.136;10.366;2022-11-15T14:06:53;12.40;99.90
20432;DHT22;10375;49.136;10.366;2022-11-15T14:09:47;12.40;99.90
20432;DHT22;10375;49.136;10.366;2022-11-15T14:12:34;12.40;99.90
20432;DHT22;10375;49.136;10.366;2022-11-15T14:15:31;12.40;99.90
20432;DHT22;10375;49.136;10.366;2022-11-15T14:17:59;12.30;99.90
20432;DHT22;10375;49.136;10.366;2022-11-15T14:20:36;12.30;99.90
20432;DHT22;10375;49.136;10.366;2022-11-15T14:23:27;12.30;99.90
20432;DHT22;10375;49.136;10.366;2022-11-15T14:25:58;12.20;99.90
20432;DHT22;10375;49.136;10.366;2022-11-15T14:30:54;12.00;99.90
20432;DHT22;10375;49.136;10.366;2022-11-15T14:33:34;11.90;99.90
20432;DHT22;10375;49.136;10.366;2022-11-15T14:38:33;11.70;99.90
20432;DHT22;10375;49.136;10.366;2022-11-15T14:41:01;11.70;99.90
20432;DHT22;10375;49.136;10.366;2022-11-15T14:43:29;11.70;99.90
20432;DHT22;10375;49.136;10.366;2022-11-15T14:45:56;11.60;99.90
20432;DHT22;10375;49.136;10.366;2022-11-15T14:48:23;11.50;99.90
20432;DHT22;10375;49.136;10.366;2022-11-15T14:50:50;11.50;99.90
20432;DHT22;10375;49.136;10.366;2022-11-15T14:53:17;11.40;99.90
20432;DHT22;10375;49.136;10.366;2022-11-15T14:55:45;11.40;99.90
20432;DHT22;10375;49.136;10.366;2022-11-15T14:58:12;11.30;99.90
20432;DHT22;10375;49.136;10.366;2022-11-15T15:00:40;11.30;99.90
20432;DHT22;10375;49.136;10.366;2022-11-15T15:03:08;11.20;99.90
20432;DHT22;10375;49.136;10.366;2022-11-15T15:05:41;11.10;99.90
20432;DHT22;10375;49.136;10.366;2022-11-15T15:08:09;11.00;99.90
20432;DHT22;10375;49.136;10.366;2022-11-15T15:10:40;10.90;99.90
20432;DHT22;10375;49.136;10.366;2022-11-15T15:13:26;10.90;99.90
20432;DHT22;10375;49.136;10.366;2022-11-15T15:15:55;10.80;99.90
20432;DHT22;10375;49.136;10.366;2022-11-15T15:18:22;10.60;99.90
20432;DHT22;10375;49.136;10.366;2022-11-15T15:20:59;10.60;99.90
20432;DHT22;10375;49.136;10.366;2022-11-15T15:23:29;10.40;99.90
20432;DHT22;10375;49.136;10.366;2022-11-15T15:25:57;10.30;99.90
20432;DHT22;10375;49.136;10.366;2022-11-15T15:28:25;10.30;99.90
20432;DHT22;10375;49.136;10.366;2022-11-15T15:31:00;10.20;99.90
20432;DHT22;10375;49.136;10.366;2022-11-15T15:33:27;10.20;99.90
20432;DHT22;10375;49.136;10.366;2022-11-15T15:35:54;10.10;99.90
20432;DHT22;10375;49.136;10.366;2022-11-15T15:38:21;10.10;99.90
20432;DHT22;10375;49.136;10.366;2022-11-15T15:40:48;10.00;99.90
20432;DHT22;10375;49.136;10.366;2022-11-15T15:43:17;10.00;99.90
20432;DHT22;10375;49.136;10.366;2022-11-15T15:45:44;10.00;99.90
20432;DHT22;10375;49.136;10.366;2022-11-15T15:48:16;9.90;99.90
20432;DHT22;10375;49.136;10.366;2022-11-15T15:50:44;9.90;99.90
20432;DHT22;10375;49.136;10.366;2022-11-15T15:53:12;9.90;99.90
20432;DHT22;10375;49.136;10.366;2022-11-15T15:55:40;9.80;99.90
20432;DHT22;10375;49.136;10.366;2022-11-15T15:58:07;9.80;99.90
20432;DHT22;10375;49.136;10.366;2022-11-15T16:00:35;9.70;99.90
20432;DHT22;10375;49.136;10.366;2022-11-15T16:03:03;9.70;99.90
20432;DHT22;10375;49.136;10.366;2022-11-15T16:05:30;9.70;99.90
20432;DHT22;10375;49.136;10.366;2022-11-15T16:07:57;9.60;99.90
20432;DHT22;10375;49.136;10.366;2022-11-15T16:10:31;9.60;99.90
20432;DHT22;10375;49.136;10.366;2022-11-15T16:12:58;9.50;99.90
20432;DHT22;10375;49.136;10.366;2022-11-15T16:15:27;9.50;99.90
20432;DHT22;10375;49.136;10.366;2022-11-15T16:17:57;9.50;99.90
20432;DHT22;10375;49.136;10.366;2022-11-15T16:20:38;9.50;99.90
20432;DHT22;10375;49.136;10.366;2022-11-15T16:23:13;9.70;99.90
20432;DHT22;10375;49.136;10.366;2022-11-15T16:25:42;9.70;99.90
20432;DHT22;10375;49.136;10.366;2022-11-15T16:28:25;9.70;99.90
20432;DHT22;10375;49.136;10.366;2022-11-15T16:31:05;9.70;99.90
20432;DHT22;10375;49.136;10.366;2022-11-15T16:33:34;9.80;99.90
20432;DHT22;10375;49.136;10.366;2022-11-15T16:36:03;9.80;99.90
20432;DHT22;10375;49.136;10.366;2022-11-15T16:38:31;9.80;99.90
20432;DHT22;10375;49.136;10.366;2022-11-15T16:40:58;9.80;99.90
20432;DHT22;10375;49.136;10.366;2022-11-15T16:43:25;9.70;99.90
20432;DHT22;10375;49.136;10.366;2022-11-15T16:45:54;9.70;99.90
20432;DHT22;10375;49.136;10.366;2022-11-15T16:48:27;9.60;99.90
20432;DHT22;10375;49.136;10.366;2022-11-15T16:50:56;9.60;99.90
20432;DHT22;10375;49.136;10.366;2022-11-15T16:53:25;9.50;99.90
20432;DHT22;10375;49.136;10.366;2022-11-15T16:55:54;9.50;99.90
20432;DHT22;10375;49.136;10.366;2022-11-15T16:58:21;9.50;99.90
20432;DHT22;10375;49.136;10.366;2022-11-15T17:00:52;9.40;99.90
20432;DHT22;10375;49.136;10.366;2022-11-15T17:03:21;9.40;99.90
20432;DHT22;10375;49.136;10.366;2022-11-15T17:05:48;9.30;99.90
20432;DHT22;10375;49.136;10.366;2022-11-15T17:08:16;9.40;99.90
20432;DHT22;10375;49.136;10.366;2022-11-15T17:10:43;9.30;99.90
20432;DHT22;10375;49.136;10.366;2022-11-15T17:13:11;9.30;99.90
20432;DHT22;10375;49.136;10.366;2022-11-15T17:15:39;9.40;99.90
20432;DHT22;10375;49.136;10.366;2022-11-15T17:18:07;9.40;99.90
20432;DHT22;10375;49.136;10.366;2022-11-15T17:20:34;9.40;99.90
20432;DHT22;10375;49.136;10.366;2022-11-15T17:23:01;9.30;99.90
20432;DHT22;10375;49.136;10.366;2022-11-15T17:25:28;9.30;99.90
20432;DHT22;10375;49.136;10.366;2022-11-15T17:27:55;9.30;99.90
20432;DHT22;10375;49.136;10.366;2022-11-15T17:30:23;9.20;99.90
20432;DHT22;10375;49.136;10.366;2022-11-15T17:32:49;9.20;99.90
20432;DHT22;10375;49.136;10.366;2022-11-15T17:35:17;9.20;99.90
20432;DHT22;10375;49.136;10.366;2022-11-15T17:37:43;9.10;99.90
20432;DHT22;10375;49.136;10.366;2022-11-15T17:40:11;9.10;99.90
20432;DHT22;10375;49.136;10.366;2022-11-15T17:42:40;9.10;99.90
20432;DHT22;10375;49.136;10.366;2022-11-15T17:45:09;9.10;99.90
20432;DHT22;10375;49.136;10.366;2022-11-15T17:47:36;9.00;99.90
20432;DHT22;10375;49.136;10.366;2022-11-15T17:50:04;9.10;99.90
20432;DHT22;10375;49.136;10.366;2022-11-15T17:52:31;9.00;99.90
20432;DHT22;10375;49.136;10.366;2022-11-15T17:54:58;9.10;99.90
20432;DHT22;10375;49.136;10.366;2022-11-15T17:57:25;9.00;99.90
20432;DHT22;10375;49.136;10.366;2022-11-15T17:59:52;9.00;99.90
20432;DHT22;10375;49.136;10.366;2022-11-15T18:02:19;9.00;99.90
20432;DHT22;10375;49.136;10.366;2022-11-15T18:04:46;8.90;99.90